To NAV CANADA Home Page Login to a new session Search on AWWS site Feedback and Comments Disclaimer Vers la page française équivalente Tips FAQ What's new on the site To the Forecasts and Observations / NOTAM section To "File a Flight Plan" website Publications and other links Update of the User's profile FIC Telephone Numbers My Weather Data Folder Route Weather Data Regional Weather Data Local Weather Data To the Forecasts and Observations / NOTAM section
Request Generated 05/03/2016 at 01:08:57 UTC . Weather information available at that time is displayed.

METAR/TAF

ARVIAT/NU    

METAR CYEK 030100Z AUTO 36025G30KT 9SM OVC010 01/M00 A2978 RMK
SLP088=
METAR CYEK 030000Z AUTO 36020G28KT 9SM OVC010 01/00 A2976 RMK SLP080=
SPECI CYEK 022335Z AUTO 36021G27KT 9SM BKN010 BKN065 OVC110 01/00
A2974 RMK SLP074=
SPECI CYEK 022311Z AUTO 36019G24KT 9SM SCT010 BKN070 BKN110 01/00
A2973 RMK SLP069=
METAR CYEK 022300Z AUTO 36018G24KT 9SM BKN010 BKN070 OVC100 01/00
A2972 RMK SLP066=

TAF CYEK 022338Z 0300/0312 35020G30KT P6SM SCT010 BKN030 TEMPO
0300/0309 4SM -RASN BR BKN009 OVC030
BECMG 0304/0306 03015KT
FM030900 03018KT P6SM SCT020 TEMPO 0309/0312 6SM -SN BR BKN020
RMK NXT FCST BY 030600Z=
Your time UTC time
Weather data provided by Environment Canada and NAV CANADA